Time;durP1;ratioP1;P1;durP2;ratioP2;P2;SDS_P1;SDS_P2;PMS_P1;PMS_P2;Temp;Humidity;BMP_temperature;BMP_pressure;BME280_temperature;BME280_humidity;BME280_pressure;Samples;Min_cycle;Max_cycle;Signal;HPM_P1;HPM_P2
2021/12/01 00:01:45;;;;;;;6.20;1.95;;;10.80;99.90;;;10.03;100.00;100853.09;4153074;28;20096;-78
2021/12/01 00:03:46;;;;;;;10.48;1.73;;;10.80;99.90;;;10.03;100.00;100825.94;4152827;28;20049;-78
2021/12/01 00:05:49;;;;;;;9.32;1.70;;;10.80;99.90;;;10.09;100.00;100824.50;4153885;28;20104;-78
2021/12/01 00:07:52;;;;;;;9.63;2.22;;;10.80;99.90;;;10.01;100.00;100838.41;4153045;28;20037;-78
2021/12/01 00:09:53;;;;;;;9.85;2.78;;;10.80;99.90;;;9.99;100.00;100835.09;4153028;28;20022;-78
2021/12/01 00:11:53;;;;;;;9.10;2.50;;;10.80;99.90;;;9.97;100.00;100826.53;4154160;28;20489;-78
2021/12/01 00:13:54;;;;;;;13.68;2.35;;;10.80;99.90;;;10.02;100.00;100817.19;4154301;28;20076;-79
2021/12/01 00:15:55;;;;;;;6.32;1.90;;;10.80;99.90;;;10.15;100.00;100823.94;4154149;28;20041;-78
2021/12/01 00:17:56;;;;;;;7.47;2.08;;;10.80;99.90;;;10.12;100.00;100821.56;4152904;28;20468;-78
2021/12/01 00:19:59;;;;;;;6.40;2.42;;;10.80;99.90;;;10.18;100.00;100813.09;4154044;28;20041;-79
2021/12/01 00:22:00;;;;;;;7.47;1.75;;;10.90;99.90;;;10.12;100.00;100793.41;4151304;28;20571;-79
2021/12/01 00:24:01;;;;;;;8.45;1.92;;;10.90;99.90;;;10.08;100.00;100789.41;4143586;28;20033;-78
2021/12/01 00:26:03;;;;;;;5.50;2.03;;;10.90;99.90;;;10.08;100.00;100786.75;4153921;28;20040;-78
2021/12/01 00:28:04;;;;;;;4.85;1.73;;;10.90;99.90;;;10.10;100.00;100792.72;4152608;28;20018;-78
2021/12/01 00:30:06;;;;;;;10.05;2.40;;;10.90;99.90;;;10.01;100.00;100781.28;4168989;28;20112;-78
2021/12/01 00:32:09;;;;;;;9.40;2.22;;;10.80;99.90;;;9.96;100.00;100774.81;4152643;28;20029;-78
2021/12/01 00:34:10;;;;;;;9.35;2.25;;;10.90;99.90;;;10.03;100.00;100762.69;4153870;28;20109;-79
2021/12/01 00:36:13;;;;;;;7.75;2.92;;;10.80;99.90;;;10.00;100.00;100758.53;4153527;28;20404;-78
2021/12/01 00:38:14;;;;;;;7.20;2.42;;;10.80;99.90;;;10.05;100.00;100755.44;4152598;28;20022;-78
2021/12/01 00:40:16;;;;;;;8.98;2.65;;;10.80;99.90;;;10.02;100.00;100750.47;4153731;28;20029;-78
2021/12/01 00:42:18;;;;;;;6.50;2.38;;;10.80;99.90;;;10.04;100.00;100737.97;4153645;28;20030;-78
2021/12/01 00:44:19;;;;;;;9.00;2.40;;;10.80;99.90;;;10.10;100.00;100737.34;4152484;28;20077;-78
2021/12/01 00:46:24;;;;;;;14.15;3.05;;;10.80;99.90;;;9.98;100.00;100723.59;4153610;28;20030;-78
2021/12/01 00:48:26;;;;;;;9.25;3.33;;;10.80;99.90;;;10.06;100.00;100722.00;4153728;28;20505;-79
2021/12/01 00:50:35;;;;;;;9.57;2.40;;;10.80;99.90;;;10.06;100.00;100711.47;4152381;28;20026;-78
2021/12/01 00:52:36;;;;;;;13.40;2.35;;;10.80;99.90;;;10.05;100.00;100715.06;4168311;28;20459;-78
2021/12/01 00:54:36;;;;;;;9.95;3.20;;;10.80;99.90;;;10.02;100.00;100703.88;4153623;28;20041;-78
2021/12/01 00:56:37;;;;;;;10.30;2.90;;;10.80;99.90;;;10.05;100.00;100701.91;4152288;28;20120;-78
2021/12/01 00:58:38;;;;;;;5.07;1.63;;;10.80;99.90;;;10.12;100.00;100687.13;4152165;28;20089;-79
2021/12/01 01:00:42;;;;;;;12.85;2.72;;;10.80;99.90;;;10.08;100.00;100689.25;4152077;28;20112;-78
2021/12/01 01:02:43;;;;;;;10.45;3.08;;;10.80;99.90;;;10.03;100.00;100689.69;4152105;28;20053;-79
2021/12/01 01:04:44;;;;;;;15.35;1.90;;;10.90;99.90;;;10.11;100.00;100674.94;4152163;28;20478;-79
2021/12/01 01:06:45;;;;;;;11.32;2.65;;;10.80;99.90;;;10.03;100.00;100668.63;4152996;28;20030;-79
2021/12/01 01:08:46;;;;;;;11.50;2.05;;;10.80;99.90;;;10.05;100.00;100670.28;4139886;28;20022;-78
2021/12/01 01:17:45;;;;;;;9.20;1.48;;;10.80;99.90;;;10.07;100.00;100634.03;4153114;28;20413;-78
2021/12/01 01:19:46;;;;;;;8.57;1.70;;;10.80;99.90;;;10.04;100.00;100622.00;4153122;28;20030;-78
2021/12/01 01:21:50;;;;;;;10.10;2.30;;;10.80;99.90;;;10.12;100.00;100597.53;4152641;28;20105;-78
2021/12/01 01:23:51;;;;;;;8.38;1.75;;;10.80;99.90;;;10.09;100.00;100572.31;4168104;28;20060;-79
2021/12/01 01:25:53;;;;;;;7.13;1.50;;;10.90;99.90;;;10.09;100.00;100574.13;4151926;28;20085;-79
2021/12/01 01:27:54;;;;;;;7.05;2.17;;;10.80;99.90;;;10.06;100.00;100575.25;4153182;28;20049;-79
2021/12/01 01:29:55;;;;;;;14.00;3.92;;;10.90;99.90;;;10.09;100.00;100577.59;4152866;28;20050;-79
2021/12/01 01:31:57;;;;;;;12.02;3.33;;;10.90;99.90;;;10.07;100.00;100562.88;4153012;28;20033;-80
2021/12/01 01:33:59;;;;;;;8.18;1.98;;;10.90;99.90;;;10.14;100.00;100563.97;4151526;28;20524;-79
2021/12/01 01:36:00;;;;;;;9.05;3.03;;;10.90;99.90;;;10.17;100.00;100559.19;4167749;28;20563;-80
2021/12/01 01:38:02;;;;;;;6.25;1.85;;;10.90;99.90;;;10.13;100.00;100559.63;4151472;28;20116;-79
2021/12/01 01:40:03;;;;;;;8.55;2.58;;;10.90;99.90;;;10.13;100.00;100557.00;4139648;28;20085;-78
2021/12/01 01:42:05;;;;;;;8.48;2.80;;;10.90;99.90;;;10.16;100.00;100543.53;4135247;28;20034;-79
2021/12/01 01:44:06;;;;;;;7.63;2.47;;;10.90;99.90;;;10.18;100.00;100533.69;4147323;28;20033;-79
2021/12/01 01:46:08;;;;;;;8.27;3.38;;;10.90;99.90;;;10.24;100.00;100544.41;4152491;28;20034;-79
2021/12/01 01:48:13;;;;;;;7.80;1.70;;;11.00;99.90;;;10.21;100.00;100534.19;4135238;28;20584;-79
2021/12/01 01:50:26;;;;;;;4.28;2.40;;;11.00;99.90;;;10.23;100.00;100542.75;4152700;28;20032;-79
2021/12/01 01:52:27;;;;;;;8.85;2.03;;;11.00;99.90;;;10.20;100.00;100524.63;4152325;28;20393;-78
2021/12/01 01:54:28;;;;;;;8.60;2.00;;;11.00;99.90;;;10.21;100.00;100514.91;4151235;28;20053;-78
2021/12/01 01:56:29;;;;;;;4.15;1.73;;;11.00;99.90;;;10.23;100.00;100518.19;4141983;28;20057;-78
2021/12/01 01:58:31;;;;;;;7.55;1.83;;;11.00;99.90;;;10.26;100.00;100509.97;4152692;28;20026;-79
2021/12/01 02:00:39;;;;;;;9.20;2.35;;;11.00;99.90;;;10.30;100.00;100504.25;4152412;28;20022;-79
2021/12/01 02:02:39;;;;;;;5.63;2.00;;;11.10;99.90;;;10.31;100.00;100505.88;4139223;28;20057;-78
2021/12/01 02:04:40;;;;;;;8.20;2.17;;;11.10;99.90;;;10.31;100.00;100497.97;4152519;28;20113;-78
2021/12/01 02:06:46;;;;;;;5.22;1.83;;;11.00;99.90;;;10.33;100.00;100495.19;4152124;28;20044;-79
2021/12/01 02:08:47;;;;;;;5.75;2.08;;;11.10;99.90;;;10.32;100.00;100483.81;4150519;28;20105;-79
2021/12/01 02:10:50;;;;;;;3.72;1.55;;;11.10;99.90;;;10.33;100.00;100490.72;4167575;28;20095;-79
2021/12/01 02:12:51;;;;;;;6.05;1.80;;;11.10;99.90;;;10.37;100.00;100486.78;4152351;28;20444;-79
2021/12/01 02:14:52;;;;;;;9.40;2.28;;;11.10;99.90;;;10.40;100.00;100475.06;4151051;28;20030;-79
2021/12/01 02:16:55;;;;;;;6.35;1.85;;;11.20;99.90;;;10.44;100.00;100473.78;4149891;28;20053;-79
2021/12/01 02:18:56;;;;;;;4.13;2.15;;;11.20;99.90;;;10.43;100.00;100464.19;4151070;28;20108;-79
2021/12/01 02:21:28;;;;;;;7.25;1.50;;;11.20;99.90;;;10.43;100.00;100451.03;4152022;28;20062;-79
2021/12/01 02:23:29;;;;;;;6.97;2.05;;;11.20;99.90;;;10.48;100.00;100448.75;4150756;28;20030;-78
2021/12/01 02:25:31;;;;;;;6.60;1.27;;;11.20;99.90;;;10.47;100.00;100439.16;4151048;28;20072;-79
2021/12/01 02:27:31;;;;;;;6.18;2.10;;;11.20;99.90;;;10.47;100.00;100424.19;4150773;28;20388;-79
2021/12/01 02:29:33;;;;;;;3.40;1.55;;;11.20;99.90;;;10.45;100.00;100426.13;4152099;28;20109;-79
2021/12/01 02:31:36;;;;;;;3.20;1.02;;;11.30;99.90;;;10.52;100.00;100421.88;4150829;28;20026;-79
2021/12/01 02:33:37;;;;;;;6.72;1.23;;;11.20;99.90;;;10.53;100.00;100417.41;4167168;28;20036;-79
2021/12/01 02:35:39;;;;;;;3.25;1.33;;;11.20;99.90;;;10.50;100.00;100415.94;4150737;28;20555;-79
2021/12/01 02:37:41;;;;;;;5.45;1.20;;;11.30;99.90;;;10.44;100.00;100405.22;4167160;28;20034;-79
2021/12/01 02:39:42;;;;;;;4.75;1.00;;;11.30;99.90;;;10.55;100.00;100396.97;4150802;28;20435;-79
2021/12/01 02:41:49;;;;;;;3.13;1.10;;;11.30;99.90;;;10.54;100.00;100390.06;4150937;28;20501;-79
2021/12/01 02:43:50;;;;;;;7.03;1.50;;;11.30;99.90;;;10.63;100.00;100386.44;4152024;28;20113;-78
2021/12/01 02:45:54;;;;;;;4.30;0.98;;;11.30;99.90;;;10.63;100.00;100372.44;4153932;28;20077;-78
2021/12/01 02:47:55;;;;;;;3.60;1.58;;;11.30;99.90;;;10.59;100.00;100366.66;4154114;28;20066;-78
2021/12/01 02:49:56;;;;;;;2.42;0.95;;;11.30;99.90;;;10.63;100.00;100367.97;4155446;28;20405;-79
2021/12/01 02:51:57;;;;;;;2.83;1.23;;;11.30;99.90;;;10.65;100.00;100352.81;4153891;28;20492;-78
2021/12/01 02:53:59;;;;;;;3.75;1.20;;;11.40;99.90;;;10.63;100.00;100343.41;4154123;28;20029;-78
2021/12/01 02:56:03;;;;;;;3.33;1.48;;;11.40;99.90;;;10.69;100.00;100346.22;4153926;28;20437;-78
2021/12/01 02:58:04;;;;;;;2.10;1.00;;;11.30;99.90;;;10.75;100.00;100348.16;4155297;28;20037;-78
2021/12/01 03:00:06;;;;;;;6.13;1.52;;;11.40;99.90;;;10.68;100.00;100333.19;4154068;28;20097;-78
2021/12/01 03:02:08;;;;;;;3.10;1.10;;;11.40;99.90;;;10.72;100.00;100340.59;4155110;28;20094;-79
2021/12/01 03:04:09;;;;;;;2.35;0.90;;;11.50;99.90;;;10.65;100.00;100317.69;4154989;28;20050;-79
2021/12/01 03:06:11;;;;;;;3.38;1.10;;;11.40;99.90;;;10.66;100.00;100325.44;4154959;28;20124;-79
2021/12/01 03:08:18;;;;;;;2.17;1.02;;;11.50;99.90;;;10.65;100.00;100307.97;4153869;28;20030;-79
2021/12/01 03:10:19;;;;;;;4.80;1.10;;;11.50;99.90;;;10.70;100.00;100310.91;4153792;28;20077;-78
2021/12/01 03:12:20;;;;;;;3.85;0.88;;;11.40;99.90;;;10.73;100.00;100294.75;4153975;28;20030;-78
2021/12/01 03:14:21;;;;;;;2.45;0.98;;;11.50;99.90;;;10.78;100.00;100289.78;4155094;28;20025;-78
2021/12/01 03:16:23;;;;;;;3.25;1.00;;;11.40;99.90;;;10.72;100.00;100287.81;4153798;28;20029;-78
2021/12/01 03:18:24;;;;;;;2.85;0.90;;;11.50;99.90;;;10.80;100.00;100289.63;4154948;28;20026;-79
2021/12/01 03:20:26;;;;;;;1.70;1.00;;;11.50;99.90;;;10.80;100.00;100285.19;4153773;28;20038;-79
2021/12/01 03:22:27;;;;;;;3.13;1.23;;;11.60;99.90;;;10.78;100.00;100283.72;4169789;28;20029;-79
2021/12/01 03:24:33;;;;;;;3.25;1.25;;;11.60;99.90;;;10.86;100.00;100273.13;4153735;28;20067;-79
2021/12/01 03:26:34;;;;;;;1.85;0.93;;;11.60;99.90;;;10.85;100.00;100267.03;4150646;28;20037;-79
2021/12/01 03:28:36;;;;;;;4.93;1.40;;;11.60;99.90;;;10.80;100.00;100272.00;4155029;28;20405;-79
2021/12/01 03:30:38;;;;;;;3.85;1.10;;;11.60;99.90;;;10.84;100.00;100270.66;4154898;28;20104;-78
2021/12/01 03:32:42;;;;;;;5.13;1.30;;;11.60;99.90;;;10.80;100.00;100264.09;4153803;28;20057;-79
2021/12/01 03:34:44;;;;;;;2.87;1.40;;;11.60;99.90;;;10.88;100.00;100266.69;4154655;28;20033;-79
2021/12/01 03:36:45;;;;;;;3.83;1.10;;;11.60;99.90;;;10.88;100.00;100274.59;4153410;28;20033;-79
2021/12/01 03:38:47;;;;;;;2.08;1.17;;;11.70;99.90;;;10.91;100.00;100274.25;4154711;28;20061;-79
2021/12/01 03:40:49;;;;;;;5.10;1.80;;;11.70;99.90;;;10.94;100.00;100267.81;4154683;28;20089;-79
2021/12/01 03:42:50;;;;;;;4.43;1.00;;;11.70;99.90;;;10.90;100.00;100262.06;4153283;28;20026;-79
2021/12/01 03:44:51;;;;;;;3.92;1.20;;;11.70;99.90;;;10.97;100.00;100267.47;4154654;28;20033;-79
2021/12/01 03:46:53;;;;;;;3.28;1.10;;;11.70;99.90;;;10.97;100.00;100259.56;4153360;28;20555;-79
2021/12/01 03:48:53;;;;;;;3.78;1.02;;;11.70;99.90;;;10.97;100.00;100255.13;4169736;28;20037;-79
2021/12/01 03:50:56;;;;;;;2.95;1.20;;;11.70;99.90;;;10.99;100.00;100253.13;4154145;28;20025;-79
2021/12/01 03:52:57;;;;;;;4.72;1.40;;;11.80;99.90;;;11.01;100.00;100259.06;4154606;28;20018;-79
2021/12/01 03:54:58;;;;;;;4.75;1.33;;;11.80;99.90;;;10.96;100.00;100235.00;4154545;28;20025;-79
2021/12/01 03:56:59;;;;;;;2.35;1.23;;;11.70;99.90;;;10.99;100.00;100239.91;4154391;28;20501;-79
2021/12/01 03:59:02;;;;;;;4.15;1.42;;;11.80;99.90;;;11.01;100.00;100243.22;4154320;28;20042;-79
2021/12/01 04:01:04;;;;;;;6.15;1.70;;;11.80;99.90;;;11.00;100.00;100249.50;4153312;28;20057;-79
2021/12/01 04:03:05;;;;;;;5.15;1.50;;;11.80;99.90;;;11.04;100.00;100242.91;4154253;28;20073;-79
2021/12/01 04:05:07;;;;;;;7.47;1.75;;;11.80;99.90;;;11.07;100.00;100241.72;4153093;28;20030;-79
2021/12/01 04:07:08;;;;;;;7.05;1.73;;;11.80;99.90;;;11.09;100.00;100237.09;4168604;28;20045;-79
2021/12/01 04:09:09;;;;;;;11.50;2.65;;;11.80;99.90;;;11.01;100.00;100229.22;4141850;28;20429;-80
2021/12/01 04:11:10;;;;;;;5.72;1.67;;;11.80;99.90;;;11.01;100.00;100231.84;4153072;28;20077;-79
2021/12/01 04:13:11;;;;;;;8.15;2.58;;;11.70;99.90;;;11.03;100.00;100235.97;4169299;28;20045;-79
2021/12/01 04:15:14;;;;;;;4.45;1.70;;;11.70;99.90;;;11.05;100.00;100239.25;4154079;28;20022;-79
2021/12/01 04:17:15;;;;;;;6.40;1.40;;;11.70;99.90;;;11.00;100.00;100236.31;4153067;28;20053;-79
2021/12/01 04:19:16;;;;;;;7.70;1.92;;;11.70;99.90;;;11.03;100.00;100241.25;4154120;28;20033;-79
2021/12/01 04:21:19;;;;;;;7.82;2.42;;;11.70;99.90;;;11.03;100.00;100245.69;4153948;28;20026;-79
2021/12/01 04:23:20;;;;;;;4.63;1.30;;;11.80;99.90;;;11.10;100.00;100249.31;4152715;28;20476;-79
2021/12/01 04:25:21;;;;;;;4.95;1.30;;;11.70;99.90;;;11.07;100.00;100245.19;4154084;28;20033;-79
2021/12/01 04:27:22;;;;;;;1.55;1.30;;;11.80;99.90;;;11.01;100.00;100243.22;4152778;28;20065;-79
2021/12/01 04:29:25;;;;;;;6.00;1.15;;;11.70;99.90;;;11.03;100.00;100243.88;4152756;28;20018;-79
2021/12/01 04:31:29;;;;;;;2.97;1.17;;;11.70;99.90;;;11.04;100.00;100249.97;4152701;28;20038;-79
2021/12/01 04:33:30;;;;;;;4.30;1.00;;;11.70;99.90;;;11.07;100.00;100249.63;4152797;28;20025;-79
2021/12/01 04:35:31;;;;;;;4.38;1.83;;;11.70;99.90;;;11.08;100.00;100249.47;4153652;28;20026;-79
2021/12/01 04:37:32;;;;;;;5.72;1.27;;;11.70;99.90;;;11.06;100.00;100248.81;4152613;28;20030;-79
2021/12/01 04:39:33;;;;;;;5.82;1.35;;;11.70;99.90;;;11.03;100.00;100243.06;4153690;28;20032;-79
2021/12/01 04:41:41;;;;;;;5.72;1.00;;;11.70;99.90;;;10.94;100.00;100247.53;4152675;28;20034;-79
2021/12/01 04:43:42;;;;;;;5.63;1.00;;;11.70;99.90;;;10.88;100.00;100235.03;4153774;28;20058;-78
2021/12/01 04:45:45;;;;;;;2.45;1.02;;;11.60;99.90;;;10.86;100.00;100239.66;4153608;28;20033;-79
2021/12/01 04:47:52;;;;;;;5.55;1.30;;;11.60;99.90;;;10.93;100.00;100253.78;4152408;28;20021;-79
2021/12/01 04:49:53;;;;;;;3.63;1.80;;;11.60;99.90;;;10.92;100.00;100249.53;4152600;28;20030;-79
2021/12/01 04:51:57;;;;;;;3.65;0.98;;;11.60;99.90;;;10.89;100.00;100256.97;4153388;28;20050;-78
2021/12/01 04:53:59;;;;;;;7.57;1.42;;;11.60;99.90;;;10.84;100.00;100264.56;4152386;28;20030;-78
2021/12/01 04:56:00;;;;;;;4.68;1.33;;;11.60;99.90;;;10.74;100.00;100259.47;4153446;28;20396;-78
2021/12/01 04:58:01;;;;;;;4.03;1.00;;;11.50;99.90;;;10.70;100.00;100263.44;4153595;28;20041;-79
2021/12/01 05:00:03;;;;;;;8.50;1.83;;;11.40;99.90;;;10.61;100.00;100256.53;4153599;28;20022;-79
2021/12/01 05:02:05;;;;;;;6.55;1.30;;;11.30;99.90;;;10.66;100.00;100258.69;4153283;28;20022;-79
2021/12/01 05:04:06;;;;;;;4.13;1.20;;;11.30;99.90;;;10.55;100.00;100268.56;4151945;28;20041;-79
2021/12/01 05:06:07;;;;;;;8.45;1.40;;;11.20;99.90;;;10.42;100.00;100262.19;4153174;28;20034;-79
2021/12/01 05:08:08;;;;;;;7.43;1.55;;;11.10;99.90;;;10.31;100.00;100263.31;4144390;28;20029;-79
2021/12/01 05:10:09;;;;;;;8.40;1.55;;;11.00;99.90;;;10.32;100.00;100267.63;4148873;28;20025;-79
2021/12/01 05:12:10;;;;;;;8.05;2.35;;;11.00;99.90;;;10.32;100.00;100270.25;4152020;28;20022;-79
2021/12/01 05:14:13;;;;;;;5.85;1.35;;;10.90;99.90;;;10.11;100.00;100269.91;4168550;28;20040;-79
2021/12/01 05:16:14;;;;;;;7.68;1.50;;;10.80;99.90;;;10.13;100.00;100270.56;4152032;28;20421;-79
2021/12/01 05:18:15;;;;;;;8.13;1.85;;;10.80;99.90;;;10.11;100.00;100274.34;4152000;28;20040;-79
2021/12/01 05:20:16;;;;;;;7.88;1.77;;;10.70;99.90;;;10.08;100.00;100282.56;4153100;28;20030;-79
2021/12/01 05:22:17;;;;;;;10.43;2.05;;;10.60;99.90;;;9.93;100.00;100280.59;4151553;28;20040;-79
2021/12/01 05:24:18;;;;;;;8.13;2.20;;;10.60;99.90;;;10.00;100.00;100284.19;4145317;28;20469;-78
2021/12/01 05:26:19;;;;;;;8.40;1.80;;;10.60;99.90;;;9.87;100.00;100278.59;4152923;28;20117;-78
2021/12/01 05:28:21;;;;;;;11.55;3.05;;;10.60;99.90;;;9.91;100.00;100276.47;4152743;28;20026;-79
2021/12/01 05:30:22;;;;;;;8.80;3.10;;;10.60;99.90;;;9.88;100.00;100280.25;4151769;28;20164;-79
2021/12/01 05:32:23;;;;;;;9.63;2.17;;;10.50;99.90;;;9.76;100.00;100286.81;4144693;28;20440;-79
2021/12/01 05:34:25;;;;;;;8.98;2.35;;;10.50;99.90;;;9.87;100.00;100297.03;4151591;28;20492;-79
2021/12/01 05:36:26;;;;;;;11.10;2.75;;;10.40;99.90;;;9.76;100.00;100291.25;4152471;28;20033;-79
2021/12/01 05:38:27;;;;;;;11.88;3.08;;;10.40;99.90;;;9.75;100.00;100297.50;4152855;28;20030;-79
2021/12/01 05:40:28;;;;;;;9.10;2.63;;;10.40;99.90;;;9.85;100.00;100299.03;4151716;28;20111;-79
2021/12/01 05:42:30;;;;;;;12.35;2.83;;;10.40;99.90;;;9.80;100.00;100293.41;4152798;28;20029;-79
2021/12/01 05:44:30;;;;;;;9.85;2.63;;;10.40;99.90;;;9.85;100.00;100312.19;4152675;28;20092;-79
2021/12/01 05:46:31;;;;;;;15.40;2.63;;;10.40;99.90;;;9.76;100.00;100293.91;4152735;28;20038;-79
2021/12/01 05:48:33;;;;;;;10.52;2.35;;;10.30;99.90;;;9.66;100.00;100301.09;4152749;28;20421;-79
2021/12/01 05:50:34;;;;;;;10.15;2.28;;;10.30;99.90;;;9.65;100.00;100299.44;4151287;28;20026;-79
2021/12/01 05:52:35;;;;;;;12.55;3.17;;;10.30;99.90;;;9.74;100.00;100299.31;4152556;28;20026;-79
2021/12/01 05:54:36;;;;;;;8.60;2.95;;;10.30;99.90;;;9.52;100.00;100302.56;4152721;28;20175;-79
2021/12/01 05:56:37;;;;;;;12.38;2.55;;;10.20;99.90;;;9.66;100.00;100301.94;4151515;28;20029;-79
2021/12/01 05:58:38;;;;;;;10.10;2.95;;;10.10;99.90;;;9.58;100.00;100304.56;4152578;28;20037;-79
2021/12/01 06:00:39;;;;;;;13.38;2.55;;;10.10;99.90;;;9.57;100.00;100318.69;4150976;28;20022;-79
2021/12/01 06:02:42;;;;;;;8.57;2.28;;;10.10;99.90;;;9.36;100.00;100307.75;4151130;28;20095;-79
2021/12/01 06:04:44;;;;;;;12.32;3.38;;;10.00;99.90;;;9.48;100.00;100309.13;4151243;28;20030;-79
2021/12/01 06:06:44;;;;;;;8.98;3.25;;;10.00;99.90;;;9.36;100.00;100297.22;4150969;28;20452;-79
2021/12/01 06:08:46;;;;;;;18.23;4.28;;;10.00;99.90;;;9.31;100.00;100317.94;4139035;28;20109;-79
2021/12/01 06:10:46;;;;;;;19.60;3.67;;;10.00;99.90;;;9.25;100.00;100303.63;4152451;28;20075;-79
2021/12/01 06:12:48;;;;;;;15.73;3.10;;;9.90;99.90;;;9.20;100.00;100303.25;4147673;28;20030;-79
2021/12/01 06:14:51;;;;;;;12.93;3.78;;;9.90;99.90;;;9.24;100.00;100295.88;4151186;28;20176;-79
2021/12/01 06:16:52;;;;;;;11.70;2.65;;;9.80;99.90;;;9.23;100.00;100310.81;4151880;28;20080;-79
2021/12/01 06:18:53;;;;;;;11.02;2.70;;;9.80;99.90;;;9.11;100.00;100306.03;4151106;28;20037;-79
2021/12/01 06:20:55;;;;;;;9.30;2.88;;;9.80;99.90;;;9.07;100.00;100309.94;4166479;28;20087;-79
2021/12/01 06:22:56;;;;;;;10.63;2.63;;;9.80;99.90;;;9.16;100.00;100330.03;4152225;28;20084;-79
2021/12/01 06:24:57;;;;;;;12.18;2.63;;;9.70;99.90;;;9.20;100.00;100331.41;4151097;28;20038;-79
2021/12/01 06:26:58;;;;;;;13.73;3.58;;;9.70;99.90;;;9.15;100.00;100329.22;4150637;28;20069;-77
2021/12/01 06:28:59;;;;;;;15.05;4.20;;;9.70;99.90;;;9.03;100.00;100327.00;4152252;28;20018;-78
2021/12/01 06:31:00;;;;;;;13.95;3.40;;;9.70;99.90;;;9.08;100.00;100338.69;4152097;28;20508;-79
2021/12/01 06:33:02;;;;;;;10.40;3.25;;;9.70;99.90;;;9.13;100.00;100340.88;4150770;28;20441;-79
2021/12/01 06:35:05;;;;;;;17.85;4.32;;;9.70;99.90;;;9.17;100.00;100342.22;4167215;28;20148;-79
2021/12/01 06:37:06;;;;;;;14.23;2.95;;;9.60;99.90;;;9.08;100.00;100327.38;4151980;28;20030;-79
2021/12/01 06:39:10;;;;;;;10.25;2.47;;;9.70;99.90;;;9.09;100.00;100329.84;4152062;28;20065;-78
2021/12/01 06:41:11;;;;;;;12.77;4.53;;;9.60;99.90;;;9.14;100.00;100335.44;4151941;28;20036;-79
2021/12/01 06:43:12;;;;;;;18.00;2.97;;;9.60;99.90;;;9.08;100.00;100336.06;4151877;28;20033;-79
2021/12/01 06:45:13;;;;;;;14.98;3.33;;;9.60;99.90;;;8.94;100.00;100327.94;4151996;28;20026;-77
2021/12/01 06:47:16;;;;;;;16.35;3.72;;;9.60;99.90;;;8.90;100.00;100330.88;4152540;28;20109;-79
2021/12/01 06:49:17;;;;;;;15.43;3.45;;;9.50;99.90;;;8.81;100.00;100329.16;4151546;28;20037;-79
2021/12/01 06:51:18;;;;;;;20.27;3.35;;;9.50;99.90;;;8.88;100.00;100332.84;4152820;28;20026;-80
2021/12/01 06:53:19;;;;;;;14.77;3.35;;;9.50;99.90;;;8.91;100.00;100342.22;4151757;28;20040;-79
2021/12/01 06:55:21;;;;;;;13.05;3.00;;;9.50;99.90;;;8.88;100.00;100347.78;4151685;28;20057;-78
2021/12/01 06:57:22;;;;;;;12.10;2.75;;;9.40;99.90;;;8.93;100.00;100336.81;4152944;28;20059;-79
2021/12/01 06:59:23;;;;;;;12.45;3.33;;;9.40;99.90;;;8.98;100.00;100347.69;4151789;28;20041;-79
2021/12/01 07:01:24;;;;;;;15.30;4.72;;;9.40;99.90;;;8.94;100.00;100351.59;4167889;28;20512;-79
2021/12/01 07:03:25;;;;;;;16.05;3.45;;;9.50;99.90;;;9.00;100.00;100341.28;4152608;28;20046;-79
2021/12/01 07:05:26;;;;;;;16.58;4.18;;;9.50;99.90;;;9.08;100.00;100343.97;4152700;28;20030;-79
2021/12/01 07:07:27;;;;;;;14.32;3.38;;;9.60;99.90;;;8.97;100.00;100340.78;4148472;28;20034;-79
2021/12/01 07:09:28;;;;;;;10.50;3.70;;;9.70;99.90;;;8.93;100.00;100340.25;4157331;28;20022;-79
2021/12/01 07:11:29;;;;;;;18.73;3.90;;;9.60;99.90;;;9.02;100.00;100335.91;4151763;28;20018;-79
2021/12/01 07:13:33;;;;;;;20.13;3.90;;;9.70;99.90;;;9.07;100.00;100338.88;4151569;28;20033;-80
2021/12/01 07:15:34;;;;;;;17.83;4.07;;;9.70;99.90;;;9.02;100.00;100335.91;4152670;28;20049;-77
2021/12/01 07:17:35;;;;;;;11.98;3.50;;;9.80;99.90;;;8.96;100.00;100347.03;4152836;28;20330;-79
2021/12/01 07:19:36;;;;;;;14.13;3.15;;;9.70;99.90;;;9.00;100.00;100332.56;4152807;28;20030;-78
2021/12/01 07:21:37;;;;;;;16.08;3.40;;;9.60;99.90;;;8.94;100.00;100330.56;4134791;28;20062;-79
2021/12/01 07:23:38;;;;;;;11.80;3.33;;;9.70;99.90;;;9.06;100.00;100334.59;4151608;28;20481;-79
2021/12/01 07:25:40;;;;;;;17.17;4.25;;;9.60;99.90;;;9.00;100.00;100329.94;4141450;28;20026;-78
2021/12/01 07:27:41;;;;;;;19.10;3.85;;;9.60;99.90;;;9.05;100.00;100332.94;4158468;28;20029;-79
2021/12/01 07:29:45;;;;;;;18.15;5.00;;;9.50;99.90;;;8.93;100.00;100335.00;4147773;28;20050;-78
2021/12/01 07:31:48;;;;;;;19.55;3.50;;;9.50;99.90;;;8.74;100.00;100330.78;4154466;28;20022;-78
2021/12/01 07:33:49;;;;;;;16.48;4.32;;;9.50;99.90;;;8.79;100.00;100338.19;4156097;28;20084;-79
2021/12/01 07:35:51;;;;;;;15.13;3.38;;;9.50;99.90;;;8.87;100.00;100346.97;4153833;28;20026;-78
2021/12/01 07:37:53;;;;;;;18.10;4.40;;;9.40;99.90;;;8.76;100.00;100336.72;4169495;28;20473;-78
2021/12/01 07:39:54;;;;;;;14.95;3.40;;;9.40;99.90;;;8.83;100.00;100344.81;4153102;28;20030;-78
2021/12/01 07:41:55;;;;;;;12.70;3.05;;;9.40;99.90;;;8.81;100.00;100339.69;4153235;28;20034;-79
2021/12/01 07:43:55;;;;;;;13.32;4.07;;;9.40;99.90;;;8.71;100.00;100332.91;4154559;28;20026;-79
2021/12/01 07:45:56;;;;;;;13.27;3.00;;;9.30;99.90;;;8.71;100.00;100343.41;4154444;28;20157;-78
2021/12/01 07:47:57;;;;;;;15.52;3.00;;;9.30;99.90;;;8.72;100.00;100340.63;4154409;28;20030;-79
2021/12/01 07:49:58;;;;;;;11.80;3.15;;;9.30;99.90;;;8.74;100.00;100346.56;4154655;28;20026;-79
2021/12/01 07:52:01;;;;;;;22.20;3.33;;;9.30;99.90;;;8.62;100.00;100353.06;4153090;28;20508;-78
2021/12/01 07:54:02;;;;;;;16.48;3.85;;;9.30;99.90;;;8.64;100.00;100350.25;4153037;28;20029;-79
2021/12/01 07:56:03;;;;;;;12.57;3.92;;;9.20;99.90;;;8.64;100.00;100340.56;4153016;28;20026;-78
2021/12/01 07:58:04;;;;;;;12.05;3.28;;;9.30;99.90;;;8.78;100.00;100358.41;4154100;28;20508;-79
2021/12/01 08:00:06;;;;;;;15.05;4.22;;;9.30;99.90;;;8.66;100.00;100369.34;4154034;28;20021;-79
2021/12/01 08:02:07;;;;;;;15.60;3.63;;;9.30;99.90;;;8.65;100.00;100367.69;4154226;28;20034;-78
2021/12/01 08:04:13;;;;;;;18.23;3.45;;;9.30;99.90;;;8.58;100.00;100354.31;4153920;28;20578;-78
2021/12/01 08:06:14;;;;;;;23.27;4.85;;;9.30;99.90;;;8.51;100.00;100361.16;4153824;28;20053;-78
2021/12/01 08:08:15;;;;;;;17.00;5.07;;;9.20;99.90;;;8.49;100.00;100362.28;4152798;28;20029;-78
2021/12/01 08:10:16;;;;;;;14.27;4.95;;;9.20;99.90;;;8.60;100.00;100370.75;4149160;28;20034;-78
2021/12/01 08:12:17;;;;;;;24.05;6.22;;;9.00;99.90;;;8.60;100.00;100373.38;4153002;28;20033;-79
2021/12/01 08:14:18;;;;;;;18.70;5.13;;;9.20;99.90;;;8.76;100.00;100368.25;4185832;28;20029;-79
2021/12/01 08:16:19;;;;;;;17.83;4.50;;;9.20;99.90;;;8.60;100.00;100370.75;4152770;28;20079;-79
2021/12/01 08:18:20;;;;;;;16.63;5.10;;;9.20;99.90;;;8.54;100.00;100362.69;4181611;28;20037;-79
2021/12/01 08:20:21;;;;;;;19.00;4.30;;;9.20;99.90;;;8.48;100.00;100372.00;4153610;28;20512;-79
2021/12/01 08:22:22;;;;;;;17.52;4.30;;;9.20;99.90;;;8.56;100.00;100374.69;4153943;28;20489;-79
2021/12/01 08:24:23;;;;;;;18.75;4.10;;;9.00;99.90;;;8.52;100.00;100381.22;4153743;28;20054;-79
2021/12/01 08:26:25;;;;;;;14.80;5.20;;;9.20;99.90;;;8.58;100.00;100374.53;4152686;28;20022;-79
2021/12/01 08:28:27;;;;;;;20.13;4.22;;;9.20;99.90;;;8.63;100.00;100367.81;4182582;28;20057;-79
2021/12/01 08:30:29;;;;;;;15.45;4.22;;;9.20;99.90;;;8.60;100.00;100369.97;4142234;28;20037;-79